Time;durP1;ratioP1;P1;durP2;ratioP2;P2;SDS_P1;SDS_P2;PMS_P1;PMS_P2;Temp;Humidity;BMP_temperature;BMP_pressure;BME280_temperature;BME280_humidity;BME280_pressure;Samples;Min_cycle;Max_cycle;Signal;HPM_P1;HPM_P2
2021/08/01 00:00:00;;;;;;;15.83;6.55;;;;;;;16.20;61.68;99640.14;1935573;89;27826;-78
2021/08/01 00:03:09;;;;;;;9.73;5.90;;;;;;;16.19;61.64;99650.11;1939586;89;27720;-81
2021/08/01 00:06:07;;;;;;;12.05;5.80;;;;;;;16.17;61.60;99644.45;1966582;89;28059;-76
2021/08/01 00:09:10;;;;;;;8.58;4.87;;;;;;;16.15;61.66;99642.36;1955591;89;30538;-79
2021/08/01 00:12:14;;;;;;;9.98;5.58;;;;;;;16.14;61.82;99643.34;1965736;89;29664;-80
2021/08/01 00:16:12;;;;;;;11.63;6.72;;;;;;;16.12;62.20;99645.34;1982600;89;27887;-83
2021/08/01 00:19:27;;;;;;;14.75;6.45;;;;;;;16.11;62.22;99647.17;1914843;90;27837;-77
2021/08/01 00:22:30;;;;;;;;;;;;;;;;;;;;;
2021/08/01 00:25:36;;;;;;;9.28;5.35;;;;;;;16.08;62.24;99653.70;1825418;95;29733;-76
2021/08/01 00:28:21;;;;;;;12.23;5.60;;;;;;;16.08;62.17;99646.95;1837047;95;27895;-78
2021/08/01 00:31:24;;;;;;;11.10;5.58;;;;;;;16.08;62.40;99633.44;1849766;96;28289;-82
2021/08/01 00:34:26;;;;;;;12.53;6.28;;;;;;;16.10;62.57;99631.47;1849682;96;28742;-76
2021/08/01 00:37:29;;;;;;;7.62;5.28;;;;;;;16.10;62.60;99636.00;1849400;94;31153;-78
2021/08/01 00:40:33;;;;;;;9.40;5.03;;;;;;;16.10;62.59;99634.17;1848846;96;33165;-78
2021/08/01 00:43:36;;;;;;;10.60;5.20;;;;;;;16.10;62.43;99632.82;1816808;97;29698;-75
2021/08/01 00:46:40;;;;;;;11.25;5.03;;;;;;;16.09;62.49;99633.81;1815372;98;27774;-79
2021/08/01 00:49:43;;;;;;;14.18;7.50;;;;;;;16.07;62.50;99626.31;1849768;96;28760;-83
2021/08/01 00:52:47;;;;;;;13.43;6.47;;;;;;;16.03;62.64;99622.15;1849876;96;30903;-81
2021/08/01 00:55:48;;;;;;;11.70;5.00;;;;;;;16.02;62.62;99620.94;1832931;96;32994;-76
2021/08/01 00:58:50;;;;;;;12.65;4.92;;;;;;;16.01;62.72;99624.62;1816770;97;29759;-80
2021/08/01 01:02:11;;;;;;;10.90;5.08;;;;;;;15.98;62.72;99620.83;1847372;93;27845;-82
2021/08/01 01:05:24;;;;;;;8.10;4.30;;;;;;;15.93;62.90;99616.66;1854429;96;28902;-78
2021/08/01 01:09:07;;;;;;;10.70;5.75;;;;;;;15.91;63.05;99614.57;1856495;95;31721;-76
2021/08/01 01:12:13;;;;;;;8.75;5.95;;;;;;;15.90;63.18;99609.30;1853873;95;32995;-75
2021/08/01 01:15:22;;;;;;;11.30;4.95;;;;;;;15.87;63.35;99609.55;1854383;96;29807;-79
2021/08/01 01:18:29;;;;;;;9.53;5.03;;;;;;;15.85;63.41;99608.34;1860946;94;28471;-80
2021/08/01 01:21:54;;;;;;;10.40;5.42;;;;;;;15.83;63.54;99598.60;1852994;95;29519;-80
2021/08/01 01:24:58;;;;;;;12.80;6.20;;;;;;;15.80;63.47;99600.56;1857419;95;31821;-81
2021/08/01 01:28:07;;;;;;;12.40;5.97;;;;;;;15.79;63.58;99598.88;1858900;95;33941;-78
2021/08/01 01:31:37;;;;;;;9.35;5.08;;;;;;;15.78;63.64;99600.34;1890559;94;30656;-77
2021/08/01 01:34:56;;;;;;;11.05;5.70;;;;;;;15.76;63.82;99604.53;1891511;92;27727;-81
2021/08/01 01:37:59;;;;;;;11.22;4.87;;;;;;;15.72;63.76;99607.11;1880068;94;29619;-80
2021/08/01 01:41:01;;;;;;;10.00;5.08;;;;;;;15.70;63.83;99603.67;1854306;96;31286;-79
2021/08/01 01:44:06;;;;;;;10.55;5.45;;;;;;;15.67;63.84;99609.33;1854324;96;33038;-78
2021/08/01 01:47:08;;;;;;;;;;;;;;;15.64;63.66;99594.72;1861929;95;29665;-78
2021/08/01 01:50:11;;;;;;;9.23;5.20;;;;;;;15.61;63.79;99597.70;1860694;95;27748;-78
2021/08/01 01:53:13;;;;;;;8.95;4.97;;;;;;;15.58;63.88;99602.00;1890846;94;28803;-77
2021/08/01 01:56:15;;;;;;;8.95;4.70;;;;;;;15.56;63.88;99598.55;1865586;95;31755;-77
2021/08/01 01:59:18;;;;;;;14.38;5.50;;;;;;;15.55;64.10;99606.29;1852518;95;34033;-77
2021/08/01 02:02:20;;;;;;;9.13;4.80;;;;;;;15.52;64.13;99610.11;1817047;97;30441;-78
2021/08/01 02:05:24;;;;;;;17.85;5.17;;;;;;;15.49;64.10;99608.50;1835802;97;28418;-76
2021/08/01 02:08:30;;;;;;;9.85;5.03;;;;;;;15.49;64.21;99613.90;1836113;96;28680;-78
2021/08/01 02:11:38;;;;;;;7.30;4.85;;;;;;;15.47;64.31;99614.51;1837723;96;31177;-78
2021/08/01 02:15:06;;;;;;;9.78;5.45;;;;;;;15.47;64.33;99616.36;1835855;96;33016;-78
2021/08/01 02:18:12;;;;;;;12.45;5.37;;;;;;;15.46;64.36;99616.88;1841807;95;29644;-78
2021/08/01 02:21:22;;;;;;;8.10;4.92;;;;;;;15.43;64.32;99610.84;1868378;94;27768;-78
2021/08/01 02:24:24;;;;;;;9.15;4.40;;;;;;;15.41;64.40;99608.75;1868579;95;28734;-78
2021/08/01 02:27:26;;;;;;;9.75;4.47;;;;;;;15.39;64.63;99601.30;1855860;95;31184;-78
2021/08/01 02:30:30;;;;;;;7.40;4.45;;;;;;;15.36;64.71;99607.78;1835549;96;33798;-77
2021/08/01 02:33:33;;;;;;;9.43;5.35;;;;;;;15.34;64.76;99613.80;1836528;96;29659;-78
2021/08/01 02:36:36;;;;;;;9.40;4.95;;;;;;;15.32;64.92;99615.28;1837927;96;27864;-81
2021/08/01 02:39:39;;;;;;;13.65;4.85;;;;;;;15.29;65.00;99614.17;1819955;96;28871;-78
2021/08/01 02:42:42;;;;;;;8.18;5.12;;;;;;;15.25;65.09;99610.00;1837751;95;32082;-78
2021/08/01 02:45:44;;;;;;;14.07;5.08;;;;;;;15.21;65.22;99609.90;1857580;95;34129;-80
2021/08/01 02:48:48;;;;;;;7.67;5.05;;;;;;;15.17;65.26;99612.47;1849182;95;30599;-78
2021/08/01 02:51:53;;;;;;;9.58;4.80;;;;;;;15.13;65.51;99613.69;1868700;95;27784;-77
2021/08/01 02:54:56;;;;;;;8.25;5.10;;;;;;;15.08;65.65;99614.06;1851183;94;28691;-77
2021/08/01 02:57:58;;;;;;;9.13;5.22;;;;;;;15.04;65.63;99611.23;1866368;95;31796;-77
2021/08/01 03:01:00;;;;;;;8.78;5.30;;;;;;;14.98;65.73;99612.58;1897921;93;32943;-78
2021/08/01 03:04:03;;;;;;;12.75;5.37;;;;;;;14.95;65.82;99609.28;1867948;95;30432;-78
2021/08/01 03:07:08;;;;;;;11.48;5.22;;;;;;;14.90;65.85;99609.61;1846807;95;28383;-76
2021/08/01 03:10:10;;;;;;;11.73;6.67;;;;;;;14.86;65.88;99621.14;1897442;93;29763;-77
2021/08/01 03:13:13;;;;;;;14.70;6.58;;;;;;;14.81;66.62;99613.90;1847148;94;31135;-78
2021/08/01 03:16:15;;;;;;;13.53;5.85;;;;;;;14.77;66.66;99610.22;1868413;95;33163;-81
2021/08/01 03:19:19;;;;;;;16.90;7.50;;;;;;;14.74;66.56;99612.68;1865662;95;27856;-77
2021/08/01 03:22:20;;;;;;;8.90;5.85;;;;;;;14.73;66.53;99620.39;1868456;95;27961;-77
2021/08/01 03:25:22;;;;;;;10.88;5.78;;;;;;;14.72;66.61;99619.55;1869625;95;28202;-77
2021/08/01 03:28:24;;;;;;;12.18;6.30;;;;;;;14.72;66.83;99626.77;1866416;94;32063;-79
2021/08/01 03:31:26;;;;;;;11.25;5.62;;;;;;;14.72;66.79;99633.51;1897980;93;33035;-77
2021/08/01 03:34:27;;;;;;;8.60;5.60;;;;;;;14.73;66.97;99629.83;1899189;93;29815;-78
2021/08/01 03:37:29;;;;;;;15.08;5.83;;;;;;;14.77;66.99;99618.31;1900216;93;27679;-78
2021/08/01 03:40:31;;;;;;;14.13;5.85;;;;;;;14.80;67.12;99609.98;1900256;93;28716;-77
2021/08/01 03:43:33;;;;;;;16.32;6.45;;;;;;;14.83;67.17;99605.70;1868489;95;31070;-78
2021/08/01 03:46:34;;;;;;;10.85;6.60;;;;;;;14.86;67.27;99600.08;1868413;95;33209;-79
2021/08/01 03:49:36;;;;;;;11.45;5.80;;;;;;;14.91;67.29;99601.05;1868472;95;30427;-79
2021/08/01 03:52:38;;;;;;;12.60;5.62;;;;;;;14.96;67.29;99608.30;1868990;95;27813;-78
2021/08/01 03:55:40;;;;;;;10.95;5.67;;;;;;;15.02;67.26;99612.72;1865907;94;29594;-79
2021/08/01 03:58:41;;;;;;;8.98;6.08;;;;;;;15.08;67.22;99614.06;1861301;95;31296;-80
2021/08/01 04:01:43;;;;;;;12.07;6.03;;;;;;;15.16;67.32;99608.89;1857525;95;32966;-78
2021/08/01 04:04:45;;;;;;;12.13;6.60;;;;;;;15.25;67.39;99602.41;1860978;94;29700;-78
2021/08/01 04:07:46;;;;;;;12.15;5.80;;;;;;;15.29;67.38;99592.58;1904846;93;27916;-79
2021/08/01 04:10:50;;;;;;;11.65;5.78;;;;;;;15.32;67.31;99593.69;1864851;93;27908;-78
2021/08/01 04:13:52;;;;;;;9.55;6.50;;;;;;;15.39;67.30;99591.85;1861608;94;31074;-78
2021/08/01 04:16:53;;;;;;;9.70;5.50;;;;;;;15.44;67.37;99591.84;1959536;88;33691;-78
2021/08/01 04:19:55;;;;;;;13.65;6.22;;;;;;;15.49;67.39;99592.30;1998810;88;29619;-80
2021/08/01 04:22:57;;;;;;;9.03;5.60;;;;;;;15.59;67.38;99599.66;1992559;89;27671;-80
2021/08/01 04:25:59;;;;;;;10.90;6.65;;;;;;;15.71;67.32;99595.95;1995495;89;28882;-80
2021/08/01 04:29:01;;;;;;;9.65;5.90;;;;;;;15.86;67.16;99610.06;1995158;88;31016;-78
2021/08/01 04:32:03;;;;;;;11.83;7.00;;;;;;;16.06;67.23;99611.56;1995606;89;32923;-78
2021/08/01 04:35:07;;;;;;;12.35;5.65;;;;;;;16.29;67.19;99604.25;1995120;89;29683;-78
2021/08/01 04:38:09;;;;;;;11.45;5.72;;;;;;;16.56;67.07;99599.65;1959800;90;27677;-80
2021/08/01 04:41:10;;;;;;;9.28;6.10;;;;;;;16.78;66.76;99589.68;1991042;89;28884;-79
2021/08/01 04:44:12;;;;;;;10.80;6.00;;;;;;;16.95;66.71;99590.95;1986281;89;31039;-78
2021/08/01 04:47:14;;;;;;;11.93;5.30;;;;;;;17.14;66.42;99566.30;1991026;89;33792;-79
2021/08/01 04:50:16;;;;;;;9.63;5.50;;;;;;;17.14;66.42;99566.30;2002643;87;29637;-79
2021/08/01 04:53:18;;;;;;;13.65;6.45;;;;;;;17.40;66.17;99586.13;2013572;88;27715;-79
2021/08/01 04:56:20;;;;;;;14.20;5.97;;;;;;;17.48;65.82;99578.16;2013454;87;28632;-79
2021/08/01 04:59:21;;;;;;;21.60;6.17;;;;;;;17.56;65.49;99576.98;1993481;87;31100;-79
2021/08/01 05:02:23;;;;;;;8.85;5.72;;;;;;;17.42;65.24;99540.31;1987586;89;34107;-78
2021/08/01 05:05:25;;;;;;;10.82;6.28;;;;;;;17.65;65.02;99571.70;1988348;89;29629;-79
2021/08/01 05:08:27;;;;;;;13.95;6.10;;;;;;;17.73;65.13;99571.88;1988909;89;27213;-79
2021/08/01 05:11:29;;;;;;;7.95;5.37;;;;;;;17.86;64.94;99568.39;1988985;89;28214;-79
2021/08/01 05:14:30;;;;;;;9.70;5.90;;;;;;;17.95;64.33;99561.27;1988746;89;32012;-78
2021/08/01 05:17:32;;;;;;;9.88;5.22;;;;;;;18.02;64.35;99557.52;1988018;89;32866;-78
2021/08/01 05:20:34;;;;;;;6.67;5.25;;;;;;;18.11;64.04;99548.53;1988170;89;30411;-78
2021/08/01 05:23:36;;;;;;;13.48;6.25;;;;;;;18.21;63.89;99545.31;1987803;89;28264;-77
2021/08/01 05:26:37;;;;;;;14.03;5.53;;;;;;;18.43;63.86;99548.71;1987633;89;29477;-78
2021/08/01 05:29:39;;;;;;;12.75;5.75;;;;;;;18.70;63.47;99547.58;1986612;89;31004;-78
2021/08/01 05:32:41;;;;;;;10.25;5.95;;;;;;;18.92;63.02;99549.06;1987625;89;32944;-77
2021/08/01 05:35:43;;;;;;;27.13;14.65;;;;;;;19.05;62.72;99544.66;1987556;89;30234;-77
2021/08/01 05:38:44;;;;;;;12.90;6.67;;;;;;;19.23;62.51;99540.66;1987527;89;28335;-77
2021/08/01 05:41:46;;;;;;;19.80;13.20;;;;;;;19.52;62.32;99533.70;1987640;89;28852;-78
2021/08/01 05:44:48;;;;;;;11.78;6.22;;;;;;;19.88;62.09;99532.89;1987490;89;31824;-77
2021/08/01 05:47:50;;;;;;;13.95;5.45;;;;;;;20.18;61.73;99523.48;1987327;89;32988;-78
2021/08/01 05:50:51;;;;;;;14.50;5.65;;;;;;;20.38;61.06;99518.34;1952779;90;29677;-78
2021/08/01 05:53:53;;;;;;;13.38;5.55;;;;;;;20.53;60.57;99514.51;1963371;88;27781;-77
2021/08/01 05:56:55;;;;;;;10.85;5.58;;;;;;;20.58;60.27;99513.53;1990543;87;28060;-78
2021/08/01 05:59:56;;;;;;;13.00;6.37;;;;;;;20.64;59.95;99508.81;1960378;89;31068;-79
2021/08/01 06:02:59;;;;;;;11.10;6.00;;;;;;;20.64;59.60;99508.30;1956353;89;33903;-79
2021/08/01 06:06:15;;;;;;;9.68;5.50;;;;;;;20.61;59.49;99501.80;1956585;90;30623;-79
2021/08/01 06:09:17;;;;;;;9.25;5.40;;;;;;;20.52;59.37;99511.47;1956339;90;27745;-79
2021/08/01 06:12:19;;;;;;;11.18;5.28;;;;;;;20.42;59.35;99506.13;1956995;90;28658;-78
2021/08/01 06:15:21;;;;;;;10.35;5.17;;;;;;;20.30;59.36;99511.81;1956832;90;31041;-79
2021/08/01 06:18:23;;;;;;;6.15;4.58;;;;;;;20.26;59.53;99521.81;1956918;90;48238;-78
2021/08/01 06:21:27;;;;;;;7.15;5.20;;;;;;;20.27;59.19;99526.25;1954114;91;29748;-78
2021/08/01 06:24:29;;;;;;;12.30;5.47;;;;;;;20.29;59.14;99529.66;1953742;91;27835;-78
2021/08/01 06:27:30;;;;;;;10.32;5.40;;;;;;;20.29;59.18;99530.50;1954095;90;28807;-78
2021/08/01 06:30:32;;;;;;;12.07;4.92;;;;;;;20.26;59.14;99533.56;1953979;91;31907;-79
2021/08/01 06:33:36;;;;;;;8.90;4.97;;;;;;;20.26;59.03;99530.84;1957003;90;32992;-78
2021/08/01 06:36:37;;;;;;;12.15;5.22;;;;;;;20.27;59.16;99537.96;1925925;91;29691;-78
2021/08/01 06:39:44;;;;;;;11.78;4.90;;;;;;;20.27;59.02;99540.69;1957120;90;27748;-77
2021/08/01 06:42:45;;;;;;;8.90;5.42;;;;;;;20.29;59.19;99528.30;1956847;90;29506;-78
2021/08/01 06:45:47;;;;;;;12.45;5.08;;;;;;;20.28;59.28;99519.27;1953918;91;31063;-77
2021/08/01 06:48:49;;;;;;;12.28;5.25;;;;;;;20.31;59.33;99522.20;1953694;90;33796;-77
2021/08/01 06:51:51;;;;;;;12.10;5.67;;;;;;;20.37;59.82;99528.87;1954399;90;29815;-76
2021/08/01 06:54:53;;;;;;;9.70;4.72;;;;;;;20.44;59.95;99532.64;1954728;91;27685;-77
2021/08/01 06:57:55;;;;;;;11.90;4.58;;;;;;;20.52;59.50;99530.52;1984141;87;28733;-78
2021/08/01 07:00:57;;;;;;;8.68;4.80;;;;;;;20.55;59.32;99532.89;1957290;90;31896;-78
2021/08/01 07:03:58;;;;;;;12.80;4.85;;;;;;;20.55;59.02;99531.53;1995262;88;33004;-78
2021/08/01 07:07:00;;;;;;;11.15;4.85;;;;;;;20.55;59.15;99524.73;1957861;90;29732;-78
2021/08/01 07:10:02;;;;;;;8.93;4.12;;;;;;;20.53;59.49;99528.11;1957796;90;27763;-77
2021/08/01 07:13:06;;;;;;;7.85;3.98;;;;;;;20.52;59.58;99530.00;1951099;91;28666;-78
2021/08/01 07:16:07;;;;;;;9.30;5.08;;;;;;;20.50;59.75;99533.38;1941031;91;31897;-78
2021/08/01 07:19:10;;;;;;;17.73;5.45;;;;;;;20.43;59.65;99541.84;1940102;91;34154;-78
2021/08/01 07:22:12;;;;;;;9.65;6.15;;;;;;;20.39;60.09;99545.89;1941368;90;29714;-77
2021/08/01 07:25:13;;;;;;;13.72;5.87;;;;;;;20.30;60.65;99532.73;1941813;90;27658;-75
2021/08/01 07:28:15;;;;;;;9.18;5.42;;;;;;;20.24;61.33;99539.67;1940607;91;28819;-75
2021/08/01 07:31:17;;;;;;;13.98;6.95;;;;;;;20.19;61.66;99544.20;1995182;88;31033;-76
2021/08/01 07:34:19;;;;;;;10.80;5.75;;;;;;;20.14;61.80;99541.11;1995184;88;33741;-76
2021/08/01 07:37:21;;;;;;;11.73;5.72;;;;;;;20.08;61.27;99529.49;1995186;88;29647;-74
2021/08/01 07:40:22;;;;;;;8.65;5.28;;;;;;;20.03;61.88;99529.10;1960331;90;27673;-74
2021/08/01 07:43:24;;;;;;;8.93;5.83;;;;;;;19.99;61.88;99522.30;1957933;90;29518;-76
2021/08/01 07:46:26;;;;;;;8.73;5.22;;;;;;;19.94;62.22;99519.18;1957634;90;31047;-75
2021/08/01 07:49:28;;;;;;;7.97;5.67;;;;;;;19.95;62.73;99508.66;1951037;90;34011;-75
2021/08/01 07:52:31;;;;;;;10.63;5.33;;;;;;;19.98;63.09;99498.31;1940797;91;29488;-75
2021/08/01 07:55:32;;;;;;;9.53;6.10;;;;;;;19.99;62.88;99481.51;1941102;91;27715;-75
2021/08/01 07:58:34;;;;;;;8.48;5.25;;;;;;;20.03;63.35;99481.52;1938493;91;28665;-75
2021/08/01 08:01:36;;;;;;;11.25;6.30;;;;;;;20.05;63.23;99476.78;1962766;90;31971;-75
2021/08/01 08:04:39;;;;;;;9.03;5.53;;;;;;;20.12;63.60;99479.72;1980795;87;33732;-76
2021/08/01 08:07:41;;;;;;;13.75;5.67;;;;;;;20.15;63.62;99475.33;1995249;89;29700;-75
2021/08/01 08:10:43;;;;;;;5.28;4.55;;;;;;;20.20;63.32;99468.91;1958461;90;27731;-74
2021/08/01 08:13:45;;;;;;;12.20;4.90;;;;;;;20.23;63.17;99474.05;1977856;87;28639;-75
2021/08/01 08:16:47;;;;;;;10.88;5.95;;;;;;;20.24;62.81;99485.27;1995372;89;31499;-76
2021/08/01 08:19:49;;;;;;;9.35;6.60;;;;;;;20.21;62.62;99492.38;1995292;89;33012;-76
2021/08/01 08:22:51;;;;;;;8.75;5.10;;;;;;;20.20;63.30;99497.47;1995146;89;29789;-76
2021/08/01 08:25:54;;;;;;;12.18;5.45;;;;;;;20.21;63.66;99497.82;1958290;90;27692;-76
2021/08/01 08:28:56;;;;;;;7.97;4.87;;;;;;;20.24;63.78;99499.36;1995369;89;28152;-75
2021/08/01 08:31:58;;;;;;;7.92;4.78;;;;;;;20.25;63.23;99501.94;1994909;89;31012;-75
2021/08/01 08:35:01;;;;;;;8.08;4.80;;;;;;;20.15;63.03;99502.03;1944990;90;32888;-76
2021/08/01 08:38:03;;;;;;;6.87;4.85;;;;;;;20.12;63.42;99506.91;1958644;90;29654;-74
2021/08/01 08:41:05;;;;;;;7.12;5.22;;;;;;;20.11;63.34;99521.52;1958281;89;27759;-75
2021/08/01 08:44:07;;;;;;;9.33;5.28;;;;;;;20.03;62.90;99515.02;1960807;89;28776;-75
2021/08/01 08:47:09;;;;;;;8.33;5.10;;;;;;;19.94;63.47;99505.06;1960551;90;30899;-71
2021/08/01 08:50:15;;;;;;;8.43;5.20;;;;;;;19.90;63.67;99503.70;1960059;89;33353;-70
2021/08/01 08:53:19;;;;;;;8.08;4.75;;;;;;;19.86;64.06;99513.97;1947239;89;30509;-77
2021/08/01 08:56:29;;;;;;;10.65;5.00;;;;;;;19.79;63.85;99518.34;2018761;81;27770;-66
2021/08/01 08:59:36;;;;;;;12.60;4.92;;;;;;;19.72;64.01;99521.31;2173844;81;28701;-67
2021/08/01 09:02:38;;;;;;;8.88;4.72;;;;;;;19.68;64.22;99524.86;2172128;82;30994;-67
2021/08/01 09:05:40;;;;;;;8.38;4.75;;;;;;;19.69;64.63;99525.20;2172098;82;32971;-67
2021/08/01 09:08:42;;;;;;;7.53;4.45;;;;;;;19.70;64.93;99535.55;2169511;82;29715;-67
2021/08/01 09:11:45;;;;;;;8.23;5.15;;;;;;;19.69;64.82;99529.80;2171497;82;28026;-67
2021/08/01 09:14:47;;;;;;;11.40;4.37;;;;;;;19.67;64.93;99524.50;2172204;82;28622;-67
2021/08/01 09:17:56;;;;;;;7.92;4.67;;;;;;;19.63;64.84;99523.61;2170851;82;31013;-67
2021/08/01 09:20:55;;;;;;;10.30;4.90;;;;;;;19.60;65.44;99522.07;2168911;81;32410;-68
2021/08/01 09:24:00;;;;;;;6.83;4.60;;;;;;;19.58;65.52;99537.67;2172050;82;29457;-68
2021/08/01 09:27:03;;;;;;;8.20;4.05;;;;;;;19.51;65.61;99540.15;2172522;81;27731;-67
2021/08/01 09:30:06;;;;;;;31.80;6.10;;;;;;;19.50;65.40;99526.70;2149589;82;28824;-67
2021/08/01 09:33:08;;;;;;;7.60;4.35;;;;;;;19.33;68.23;99521.08;2133044;83;31129;-65
2021/08/01 09:36:19;;;;;;;8.33;4.37;;;;;;;19.01;69.22;99533.26;2133011;82;32940;-66
2021/08/01 09:39:22;;;;;;;7.72;4.20;;;;;;;18.81;68.65;99537.89;2135094;83;29645;-67
2021/08/01 09:42:25;;;;;;;10.25;3.25;;;;;;;18.74;68.35;99527.27;2135149;83;27731;-66
2021/08/01 09:45:27;;;;;;;6.40;3.50;;;;;;;18.59;68.07;99526.90;2106163;83;28727;-66
2021/08/01 09:48:29;;;;;;;7.33;4.28;;;;;;;18.47;68.13;99547.91;2135849;82;31657;-66
2021/08/01 09:51:38;;;;;;;6.10;3.70;;;;;;;18.40;68.54;99535.92;2133191;82;32944;-67
2021/08/01 09:54:51;;;;;;;10.78;4.90;;;;;;;18.28;68.72;99527.95;2132918;83;29927;-66
2021/08/01 09:57:57;;;;;;;7.78;4.28;;;;;;;18.18;69.15;99523.90;2126729;82;27692;-67
2021/08/01 10:00:59;;;;;;;4.40;3.47;;;;;;;18.12;69.30;99510.91;2120802;83;28707;-67
2021/08/01 10:04:02;;;;;;;5.10;4.30;;;;;;;18.04;69.21;99506.73;2158079;82;31903;-67
2021/08/01 10:07:10;;;;;;;7.22;5.30;;;;;;;17.92;69.14;99508.70;2149166;82;34258;-66
2021/08/01 10:10:19;;;;;;;8.35;5.58;;;;;;;17.86;69.66;99498.45;2120759;84;29742;-67
2021/08/01 10:13:24;;;;;;;6.67;4.50;;;;;;;17.80;70.00;99491.72;2120751;83;27780;-67
2021/08/01 10:16:26;;;;;;;6.90;4.72;;;;;;;17.76;70.16;99491.16;2121315;82;29105;-67
2021/08/01 10:19:29;;;;;;;8.28;4.97;;;;;;;17.69;70.21;99487.81;2121236;82;31900;-67
2021/08/01 10:22:31;;;;;;;6.22;5.03;;;;;;;17.64;70.77;99473.83;2120567;84;33807;-67
2021/08/01 10:25:33;;;;;;;11.88;4.60;;;;;;;17.52;70.69;99454.19;2120848;84;29635;-68
2021/08/01 10:28:39;;;;;;;6.17;4.67;;;;;;;17.42;70.76;99462.30;2148927;82;27631;-66
2021/08/01 10:32:07;;;;;;;6.85;4.53;;;;;;;17.33;70.97;99469.41;2158782;81;29715;-66
2021/08/01 10:35:13;;;;;;;6.62;3.87;;;;;;;17.08;71.56;99481.10;2158727;82;30630;-67
2021/08/01 10:38:16;;;;;;;5.75;4.00;;;;;;;17.08;71.56;99481.10;2111890;83;32968;-63
2021/08/01 10:41:21;;;;;;;7.30;3.87;;;;;;;16.96;71.12;99506.56;2094076;84;29782;-63
2021/08/01 10:44:23;;;;;;;6.83;4.37;;;;;;;16.89;71.26;99506.23;2158335;82;31265;-68
2021/08/01 10:47:26;;;;;;;6.12;4.25;;;;;;;16.85;71.58;99505.66;2158922;82;29909;-68
2021/08/01 10:50:30;;;;;;;7.37;3.70;;;;;;;16.85;71.70;99516.48;2159066;82;31022;-68
2021/08/01 10:53:34;;;;;;;5.35;3.45;;;;;;;16.85;71.88;99519.66;2159422;82;33714;-64
2021/08/01 10:56:36;;;;;;;8.18;4.22;;;;;;;16.82;71.87;99523.98;2140507;82;30487;-67
2021/08/01 11:00:00;;;;;;;7.25;4.22;;;;;;;16.81;71.94;99520.92;2134081;81;28265;-67
2021/08/01 11:03:21;;;;;;;7.80;4.33;;;;;;;16.81;72.20;99507.39;2119599;83;29162;-67
2021/08/01 11:06:47;;;;;;;8.30;5.45;;;;;;;16.74;72.32;99481.90;2150604;81;31066;-69
2021/08/01 11:10:08;;;;;;;4.70;3.50;;;;;;;16.74;72.32;99481.90;2120433;83;32978;-67
2021/08/01 11:13:34;;;;;;;4.90;4.40;;;;;;;16.71;72.58;99478.98;2122834;83;30381;-66
2021/08/01 11:16:49;;;;;;;11.28;3.87;;;;;;;16.68;72.53;99464.38;2122166;83;27730;-65
2021/08/01 11:19:52;;;;;;;7.15;3.80;;;;;;;16.66;73.16;99464.49;2122666;83;28658;-68
2021/08/01 11:22:56;;;;;;;9.50;4.30;;;;;;;16.67;73.16;99459.44;2136531;82;31851;-69
2021/08/01 11:26:07;;;;;;;4.37;3.67;;;;;;;16.73;73.29;99466.15;2159410;82;32923;-68
2021/08/01 11:29:11;;;;;;;7.40;4.00;;;;;;;16.73;73.29;99466.15;2159117;82;29706;-67
2021/08/01 11:32:13;;;;;;;4.65;3.95;;;;;;;16.74;73.23;99462.97;2151595;81;27709;-66
2021/08/01 11:35:17;;;;;;;7.28;4.55;;;;;;;16.78;73.36;99454.95;2121232;82;28640;-67
2021/08/01 11:38:20;;;;;;;6.25;4.10;;;;;;;16.83;73.41;99455.37;2120322;83;31038;-66
2021/08/01 11:41:35;;;;;;;5.20;3.80;;;;;;;16.90;73.47;99462.43;2120743;83;33016;-68
2021/08/01 11:44:59;;;;;;;5.65;4.00;;;;;;;16.94;73.32;99455.28;2123126;82;29720;-68
2021/08/01 11:48:04;;;;;;;8.28;4.47;;;;;;;16.98;73.39;99454.02;2119826;83;27736;-68
2021/08/01 11:51:07;;;;;;;9.23;5.45;;;;;;;17.01;73.31;99456.97;2120560;84;28880;-69
2021/08/01 11:54:12;;;;;;;6.60;3.77;;;;;;;17.00;73.26;99450.68;2152718;82;31036;-68
2021/08/01 11:57:15;;;;;;;4.60;3.35;;;;;;;16.96;73.20;99453.81;2161375;82;32970;-68
2021/08/01 12:00:24;;;;;;;3.90;2.98;;;;;;;16.96;73.20;99453.81;2171915;82;29754;-68
2021/08/01 12:03:29;;;;;;;3.27;2.80;;;;;;;16.95;73.02;99451.61;2169731;82;27711;-67
2021/08/01 12:06:40;;;;;;;7.25;5.25;;;;;;;16.95;73.07;99443.97;2171651;82;28907;-65
2021/08/01 12:09:45;;;;;;;4.12;3.12;;;;;;;17.03;73.06;99444.63;2143727;81;31130;-66
2021/08/01 12:12:49;;;;;;;4.72;2.90;;;;;;;17.07;72.89;99440.66;2133373;83;33025;-68
2021/08/01 12:15:51;;;;;;;3.20;2.90;;;;;;;17.16;72.95;99449.28;2107036;83;29638;-66
2021/08/01 12:19:15;;;;;;;3.55;2.45;;;;;;;17.25;72.83;99458.41;2135290;82;28282;-68
2021/08/01 12:22:22;;;;;;;3.30;2.47;;;;;;;17.29;72.53;99462.05;2133235;83;28697;-67
2021/08/01 12:25:26;;;;;;;3.85;2.85;;;;;;;17.29;72.19;99457.14;2133122;83;31042;-66
2021/08/01 12:28:41;;;;;;;3.00;2.37;;;;;;;17.07;72.22;99429.33;2151763;82;33182;-68
2021/08/01 12:31:42;;;;;;;3.22;2.92;;;;;;;17.07;72.22;99429.33;2171762;82;29748;-66
2021/08/01 12:34:45;;;;;;;3.87;3.12;;;;;;;17.19;72.47;99446.81;2171281;82;27788;-67
2021/08/01 12:38:00;;;;;;;2.30;2.10;;;;;;;17.15;72.71;99448.44;2169430;82;29373;-66
2021/08/01 12:41:12;;;;;;;5.05;2.52;;;;;;;17.16;72.75;99458.75;2170986;81;31030;-68
2021/08/01 12:44:19;;;;;;;5.25;2.87;;;;;;;17.12;72.69;99446.02;2172071;82;33000;-67
2021/08/01 12:47:22;;;;;;;6.58;2.75;;;;;;;17.15;72.84;99451.63;2168398;82;30906;-66
2021/08/01 12:50:25;;;;;;;5.55;2.83;;;;;;;17.20;72.86;99440.41;2133480;83;27730;-67
2021/08/01 12:53:29;;;;;;;3.12;2.90;;;;;;;17.25;73.03;99435.41;2159105;82;29494;-68
2021/08/01 12:56:33;;;;;;;3.98;2.77;;;;;;;17.37;72.91;99422.11;2171065;82;28224;-66
2021/08/01 12:59:37;;;;;;;2.90;2.35;;;;;;;17.48;72.45;99437.86;2127120;82;33786;-65
2021/08/01 13:02:42;;;;;;;4.60;2.58;;;;;;;17.46;72.39;99434.79;2111187;83;29691;-66
2021/08/01 13:05:49;;;;;;;5.60;2.42;;;;;;;17.46;72.39;99434.79;2107931;83;27743;-67
2021/08/01 13:08:52;;;;;;;5.15;3.05;;;;;;;17.50;72.71;99442.13;2120109;83;29136;-67
2021/08/01 13:11:56;;;;;;;4.28;2.90;;;;;;;17.56;72.63;99443.40;2121023;83;31712;-65
2021/08/01 13:14:58;;;;;;;2.70;2.50;;;;;;;17.61;72.61;99436.58;2076397;85;32968;-66
2021/08/01 13:18:04;;;;;;;4.60;2.22;;;;;;;17.64;72.37;99445.39;2086194;83;29681;-67
2021/08/01 13:21:22;;;;;;;4.75;2.47;;;;;;;17.59;72.03;99444.47;2076497;85;27683;-63
2021/08/01 13:24:43;;;;;;;4.37;2.55;;;;;;;17.55;72.00;99452.04;2064584;85;28121;-67
2021/08/01 13:27:50;;;;;;;3.45;2.72;;;;;;;17.54;71.96;99435.94;2085983;83;31087;-68
2021/08/01 13:31:11;;;;;;;4.60;2.83;;;;;;;17.52;71.97;99443.34;2084905;85;32977;-66
2021/08/01 13:34:15;;;;;;;4.40;2.58;;;;;;;17.49;71.96;99447.17;2084177;84;29639;-66
2021/08/01 13:37:29;;;;;;;5.70;3.30;;;;;;;17.48;71.92;99437.86;2078747;83;27711;-66
2021/08/01 13:40:37;;;;;;;4.35;3.02;;;;;;;17.40;72.15;99435.34;2084214;85;29867;-65
2021/08/01 13:43:38;;;;;;;5.03;3.52;;;;;;;17.51;72.49;99447.05;2119733;84;32078;-67
2021/08/01 13:46:41;;;;;;;4.85;4.03;;;;;;;17.54;72.35;99446.78;2128864;82;33078;-68
2021/08/01 13:49:47;;;;;;;5.92;3.42;;;;;;;17.54;72.36;99444.91;2159034;82;30544;-65
2021/08/01 13:52:51;;;;;;;4.20;3.80;;;;;;;17.56;72.44;99447.46;2158476;82;27808;-66
2021/08/01 13:55:52;;;;;;;6.55;3.40;;;;;;;17.51;72.55;99453.83;2159035;82;29943;-67
2021/08/01 13:58:57;;;;;;;4.47;3.98;;;;;;;17.39;72.70;99433.63;2156476;81;32172;-66
2021/08/01 14:02:01;;;;;;;8.10;3.67;;;;;;;17.45;72.83;99445.78;2158702;82;33089;-66
2021/08/01 14:05:04;;;;;;;5.60;3.00;;;;;;;17.42;72.92;99441.99;2158995;81;29727;-66
2021/08/01 14:08:06;;;;;;;4.78;3.25;;;;;;;17.37;72.80;99456.44;2156951;82;27730;-66
2021/08/01 14:11:08;;;;;;;8.08;3.47;;;;;;;17.25;72.96;99459.28;2158670;82;29463;-65
2021/08/01 14:14:10;;;;;;;4.55;3.75;;;;;;;17.25;72.96;99459.28;2157752;81;31067;-67
2021/08/01 14:17:12;;;;;;;4.92;3.10;;;;;;;17.23;73.11;99454.98;2146072;82;33757;-66
2021/08/01 14:20:16;;;;;;;3.67;3.00;;;;;;;17.23;73.28;99450.45;2120568;84;30887;-67
2021/08/01 14:23:21;;;;;;;5.20;3.22;;;;;;;17.21;73.13;99442.13;2120764;84;27710;-66
2021/08/01 14:26:22;;;;;;;;;;;;;;;17.21;73.14;99445.67;2125263;82;29513;-66